San Juan Capistrano, CA

1:49 AM PDT on September 17, 2014 (GMT -0700)
San Juan Creek | Change Station
CLOSE
Current Station
Personal Weather Station
Location: San Juan Capistrano, CA
Elevation: 300 ft
Nearby Weather Stations
Active Advisory: Beach Hazard Statement Active Notice: Record Report

Elev 300 ft 33.52 °N, 117.58 °W | Updated 7 minutes ago

Clear
Clear
75.3 °F
Feels Like 76 °F
N
0.0
Wind Variable Wind from SE

Today
High -- | Low -- °F
--% Chance of Precip.
Yesterday
High -- | Low -- °F
Precip. -- in
6:35 AM 6:53 PM
Last Quarter, 38% visible
Pressure 29.72 in
Visibility 10.0 miles
Clouds Clear
Heat Index 76 °F
Dew Point 68 °F
Humidity 78%
Rainfall 0.00 in
Snow Depth Not available.
UV 0 out of 12
Pollen 6.80 out of 12
Ozone Good
Flu Activity Not available.
METAR KSNA 170753Z AUTO 20003KT 10SM CLR 28/16 A2972 RMK AO2 SLP062 T02780161 403780244 TSNO

More Conditions Fewer Conditions

Pressure 29.72 in
Visibility 10.0 miles
Clouds Clear
Heat Index 76 °F
Dew Point 68 °F
Humidity 78%
Rainfall 0.00 in
Snow Depth Not available.
UV 0 out of 12
Pollen 6.80 out of 12
Ozone Good
Flu Activity Not available.
METAR KSNA 170753Z AUTO 20003KT 10SM CLR 28/16 A2972 RMK AO2 SLP062 T02780161 403780244 TSNO

More Conditions Fewer Conditions

10-Day Weather Forecast

Almanac

Astronomy

Sep. 17, 2014 Rise Set
Actual Time 6:35 AM PDT 6:53 PM PDT
Civil Twilight 6:10 AM PDT 7:18 PM PDT
Nautical Twilight 5:41 AM PDT 7:47 PM PDT
Astronomical Twilight 5:11 AM PDT 8:17 PM PDT
Moon 12:51 AM PDT 2:55 PM PDT
Length of Visible Light 13h 08m
Length of Day
12h 18m
Tomorrow will be 2m 4s shorter.
Last Quarter, 38% of the Moon is Illuminated
Today
Last Quarter
Sep 24
New
Oct 1
First Quarter
Oct 8
Full
Oct 15
Last Quarter

Today's Extremes

State Highs State Lows

Community

WunderPhotos

Upload Photos

1,753,990 photos uploaded!

Nearby

Air Quality

  Air Quality AQ Index Pollutant
Yesterday Moderate
OZONE
Current Good
OZONE
Wednesday Good
PM10
Wednesday Good
OZONE
Wednesday Good
CO
Wednesday Good
NO2

Snow Depth

Station Depth Elevation
Rubicon #2 0 in 7500 ft
Leavitt Meadows 1 in 7200 ft
Echo Peak 0 in 7800 ft
Summit Meadow 0 in 9122 ft
Spratt Creek 0 in 6200 ft

Earthquake Activity

City Distance Mag. Time & Date
La Quinta, California 65 miles 2.7 8:59 PM PDT
2014-09-15
San Jacinto, California 40 miles 3.0 3:16 PM PDT
2014-09-14
Minimum magnitude displayed is 2.5.

Coastal Water Temperatures

Place Temperature
Santa Monica Pier 72.0 °F
Los Angeles, CA 70.0 °F
La Jolla, CA 70.0 °F

Nearby Weather Stations